Time;durP1;ratioP1;P1;durP2;ratioP2;P2;SDS_P1;SDS_P2;PMS_P1;PMS_P2;Temp;Humidity;BMP_temperature;BMP_pressure;BME280_temperature;BME280_humidity;BME280_pressure;Samples;Min_cycle;Max_cycle;Signal;HPM_P1;HPM_P2
2022/10/08 00:00:45;;;;;;;10.07;3.30;;;;;;;12.60;84.00;101487.16;5013104;28;20044;-83
2022/10/08 00:03:11;;;;;;;11.40;3.20;;;;;;;12.59;84.45;101482.81;5005553;28;20037;-85
2022/10/08 00:05:36;;;;;;;10.90;3.20;;;;;;;12.58;84.20;101483.84;5030456;28;20048;-84
2022/10/08 00:08:02;;;;;;;12.57;3.20;;;;;;;12.54;84.20;101479.88;5029987;28;20045;-84
2022/10/08 00:10:27;;;;;;;15.03;3.30;;;;;;;12.54;84.65;101479.88;5030368;28;20041;-83
2022/10/08 00:12:52;;;;;;;15.73;4.00;;;;;;;12.52;83.97;101472.97;5021053;28;20064;-82
2022/10/08 00:15:18;;;;;;;10.30;3.20;;;;;;;12.55;84.26;101480.69;5030432;28;20068;-83
2022/10/08 00:17:43;;;;;;;12.33;2.97;;;;;;;12.54;84.07;101481.72;5030213;28;20120;-83
2022/10/08 00:20:08;;;;;;;12.30;3.20;;;;;;;12.55;84.04;101488.84;5030530;28;20057;-83
2022/10/08 00:22:34;;;;;;;12.10;3.13;;;;;;;12.58;84.14;101481.13;5029871;28;20134;-84
2022/10/08 00:24:59;;;;;;;12.30;3.27;;;;;;;12.57;84.43;101478.63;5003712;28;20128;-84
2022/10/08 00:27:25;;;;;;;10.03;3.10;;;;;;;12.57;84.72;101484.88;5029005;28;20045;-85
2022/10/08 00:29:51;;;;;;;14.73;3.30;;;;;;;12.61;84.13;101491.56;5020748;28;20132;-85
2022/10/08 00:32:18;;;;;;;14.20;3.60;;;;;;;12.56;84.76;101476.94;5029651;28;20040;-84
2022/10/08 00:34:44;;;;;;;15.27;3.30;;;;;;;12.63;84.48;101489.50;5028990;28;20087;-83
2022/10/08 00:37:10;;;;;;;11.03;3.10;;;;;;;12.69;84.38;101476.09;5028997;28;20883;-85
2022/10/08 00:39:35;;;;;;;15.30;3.30;;;;;;;12.68;84.19;101477.97;5028922;28;20040;-85
2022/10/08 00:42:01;;;;;;;13.00;3.60;;;;;;;12.72;84.09;101481.13;5004194;28;20112;-85
2022/10/08 00:44:45;;;;;;;8.93;3.10;;;;;;;12.75;84.59;101488.84;5003716;28;20120;-86
2022/10/08 00:47:32;;;;;;;10.80;3.42;;;;;;;12.68;84.82;101496.19;5029184;28;20498;-84
2022/10/08 00:50:04;;;;;;;12.00;3.20;;;;;;;12.63;85.21;101494.06;5029356;28;20081;-86
2022/10/08 00:52:33;;;;;;;10.93;3.37;;;;;;;12.64;85.68;101493.88;5028827;28;20040;-83
2022/10/08 00:55:05;;;;;;;15.80;3.87;;;;;;;12.60;85.88;101495.31;5029147;28;20100;-83
2022/10/08 00:57:37;;;;;;;10.00;3.80;;;;;;;12.60;86.27;101492.59;5029431;28;20124;-83
2022/10/08 01:00:09;;;;;;;9.77;3.47;;;;;;;12.58;86.74;101507.44;5029585;28;20041;-85
2022/10/08 01:02:34;;;;;;;12.20;4.07;;;;;;;12.56;86.91;101498.69;5028451;28;20064;-84
2022/10/08 01:05:03;;;;;;;13.17;3.60;;;;;;;12.45;86.88;101490.09;5028554;28;20052;-83
2022/10/08 01:07:58;;;;;;;12.40;3.27;;;;;;;12.57;87.28;101505.81;5029376;28;20923;-83
2022/10/08 01:10:54;;;;;;;11.77;3.30;;;;;;;12.56;87.01;101507.66;4997411;28;20049;-83
2022/10/08 01:13:50;;;;;;;16.17;4.03;;;;;;;12.59;87.03;101515.44;5028518;28;20472;-83
2022/10/08 01:16:54;;;;;;;12.13;4.27;;;;;;;12.62;87.15;101512.28;5029648;28;20037;-83
2022/10/08 01:19:56;;;;;;;13.80;4.10;;;;;;;12.66;87.20;101509.97;5028173;28;20035;-82
2022/10/08 01:23:00;;;;;;;16.90;4.40;;;;;;;12.63;88.15;101507.66;4993513;28;1119297;-83
2022/10/08 01:25:34;;;;;;;14.87;4.53;;;;;;;12.49;89.83;101507.66;5032669;28;20225;-84
2022/10/08 01:28:13;;;;;;;;;;;;;;;12.62;88.21;101514.16;5033520;28;20032;-83
2022/10/08 01:31:17;;;;;;;13.33;4.97;;;;;;;12.40;91.73;101511.66;5033695;28;19977;-84
2022/10/08 01:33:52;;;;;;;14.17;4.93;;;;;;;12.21;93.31;101518.72;5032751;28;20037;-83
2022/10/08 01:36:20;;;;;;;13.53;5.27;;;;;;;12.09;94.07;101514.91;5033697;28;20152;-85
2022/10/08 01:38:52;;;;;;;14.47;5.70;;;;;;;11.90;95.18;101495.63;5033159;28;20033;-84
2022/10/08 01:41:19;;;;;;;15.07;5.97;;;;;;;11.96;96.62;101505.69;5033170;28;20481;-83
2022/10/08 01:43:51;;;;;;;17.83;6.40;;;;;;;11.85;97.84;101514.41;5033262;28;20079;-83
2022/10/08 01:46:22;;;;;;;16.13;5.93;;;;;;;11.80;98.72;101511.47;5033657;28;20642;-84
2022/10/08 01:48:50;;;;;;;18.17;6.50;;;;;;;11.65;99.21;101492.63;5033527;28;20037;-84
2022/10/08 01:51:23;;;;;;;12.50;5.63;;;;;;;11.75;100.00;101505.81;5033435;28;20029;-84
2022/10/08 01:53:51;;;;;;;14.27;5.80;;;;;;;11.62;100.00;101490.31;5033230;28;20068;-83
2022/10/08 01:56:22;;;;;;;13.37;5.77;;;;;;;11.64;100.00;101494.50;5032941;28;20063;-84
2022/10/08 01:58:49;;;;;;;13.67;6.23;;;;;;;11.63;100.00;101503.69;5032695;28;20477;-84
2022/10/08 02:01:21;;;;;;;15.13;7.03;;;;;;;11.55;100.00;101514.72;5032667;28;20044;-84
2022/10/08 02:06:36;;;;;;;16.27;7.28;;;;;;;11.43;100.00;101516.34;5032612;28;20043;-84
2022/10/08 02:09:03;;;;;;;15.47;7.17;;;;;;;11.41;100.00;101518.41;5032425;28;20756;-83
2022/10/08 02:11:28;;;;;;;13.73;6.93;;;;;;;11.36;100.00;101512.75;5032611;28;20358;-83
2022/10/08 02:13:54;;;;;;;19.20;7.27;;;;;;;11.39;100.00;101521.31;5032691;28;20056;-82
2022/10/08 02:16:26;;;;;;;13.00;6.73;;;;;;;11.30;100.00;101517.09;4991329;28;21410;-83
2022/10/08 02:19:10;;;;;;;12.37;6.23;;;;;;;11.30;100.00;101522.50;5032406;28;20115;-83
2022/10/08 02:21:38;;;;;;;12.98;6.55;;;;;;;11.26;100.00;101522.09;5032044;28;20064;-82
2022/10/08 02:24:07;;;;;;;14.00;6.20;;;;;;;11.22;100.00;101509.97;5031745;28;20176;-83
2022/10/08 02:26:37;;;;;;;13.90;6.40;;;;;;;11.13;100.00;101511.16;5032644;28;20450;-82
2022/10/08 02:29:16;;;;;;;14.03;6.20;;;;;;;11.19;100.00;101528.50;5013536;28;20592;-82
2022/10/08 02:32:02;;;;;;;13.47;6.10;;;;;;;11.18;100.00;101522.25;5031771;28;20727;-83
2022/10/08 02:34:33;;;;;;;12.40;5.77;;;;;;;11.15;100.00;101520.78;5032427;28;20064;-82
2022/10/08 02:37:20;;;;;;;12.97;5.47;;;;;;;11.18;100.00;101519.53;5032325;28;20110;-82
2022/10/08 02:39:50;;;;;;;14.47;5.87;;;;;;;11.17;100.00;101526.00;5032716;28;20603;-82
2022/10/08 02:42:18;;;;;;;13.90;5.53;;;;;;;11.09;100.00;101524.28;5032256;28;21448;-82
2022/10/08 02:45:00;;;;;;;11.67;5.00;;;;;;;11.10;100.00;101520.53;5032090;28;20041;-82
2022/10/08 02:47:31;;;;;;;11.80;5.00;;;;;;;11.07;100.00;101525.50;5032779;28;20147;-83
2022/10/08 02:50:03;;;;;;;11.60;4.60;;;;;;;11.03;100.00;101525.06;5023023;28;20115;-83
2022/10/08 02:52:38;;;;;;;11.30;4.53;;;;;;;11.02;100.00;101525.28;5031600;28;20033;-82
2022/10/08 02:55:13;;;;;;;13.02;4.35;;;;;;;10.93;100.00;101511.03;5031549;28;20041;-82
2022/10/08 02:57:44;;;;;;;14.40;4.50;;;;;;;10.97;100.00;101518.56;5031882;28;20033;-83
2022/10/08 03:00:10;;;;;;;13.57;4.03;;;;;;;10.92;100.00;101523.75;5030907;28;20029;-82
2022/10/08 03:02:44;;;;;;;10.90;4.07;;;;;;;10.89;100.00;101526.88;5031933;28;20405;-82
2022/10/08 03:05:16;;;;;;;11.00;4.23;;;;;;;10.82;100.00;101509.69;5031579;28;20045;-83
2022/10/08 03:07:43;;;;;;;12.93;4.03;;;;;;;10.84;100.00;101521.19;5006289;28;20799;-82
2022/10/08 03:10:09;;;;;;;11.00;3.73;;;;;;;10.80;100.00;101507.19;5031384;28;21332;-83
2022/10/08 03:12:34;;;;;;;12.30;3.90;;;;;;;10.80;100.00;101523.44;5031622;28;20037;-83
2022/10/08 03:15:00;;;;;;;10.40;4.00;;;;;;;10.76;100.00;101524.88;5030950;28;20040;-82
2022/10/08 03:17:31;;;;;;;9.13;3.70;;;;;;;10.74;100.00;101526.97;5032032;28;20111;-83
2022/10/08 03:20:01;;;;;;;10.20;3.47;;;;;;;10.73;100.00;101533.41;5030518;28;20919;-83
2022/10/08 03:22:28;;;;;;;11.33;3.97;;;;;;;10.74;100.00;101535.09;5031368;28;20075;-82
2022/10/08 03:24:53;;;;;;;12.33;3.70;;;;;;;10.72;100.00;101530.91;5030598;28;20040;-83
2022/10/08 03:27:19;;;;;;;9.77;3.30;;;;;;;10.73;100.00;101532.53;5031923;28;20079;-82
2022/10/08 03:29:44;;;;;;;11.80;3.67;;;;;;;10.73;100.00;101532.53;5030542;28;20047;-83
2022/10/08 03:32:09;;;;;;;11.73;3.50;;;;;;;10.73;100.00;101540.69;5031792;28;20040;-83
2022/10/08 03:34:35;;;;;;;11.10;3.47;;;;;;;10.70;100.00;101543.78;5031542;28;20057;-82
2022/10/08 03:37:00;;;;;;;9.40;3.20;;;;;;;10.67;100.00;101545.00;5031467;28;20184;-83
2022/10/08 03:39:26;;;;;;;9.70;3.33;;;;;;;10.68;100.00;101545.88;5005999;28;20025;-83
2022/10/08 03:41:51;;;;;;;9.87;3.30;;;;;;;10.64;100.00;101548.13;4990140;28;20041;-82
2022/10/08 03:44:16;;;;;;;10.10;3.30;;;;;;;10.66;100.00;101547.94;5004661;28;20041;-83
2022/10/08 03:46:41;;;;;;;9.17;3.20;;;;;;;10.69;100.00;101552.94;5030806;28;20041;-83
2022/10/08 03:49:07;;;;;;;10.33;3.30;;;;;;;10.63;100.00;101555.44;5030020;28;20037;-83
2022/10/08 03:51:32;;;;;;;10.23;3.23;;;;;;;10.60;100.00;101547.66;5031055;28;20045;-83
2022/10/08 03:53:58;;;;;;;11.00;3.33;;;;;;;10.58;100.00;101546.19;5030081;28;20128;-83
2022/10/08 03:56:24;;;;;;;8.50;3.03;;;;;;;10.56;100.00;101553.69;5031721;28;20127;-81
2022/10/08 03:58:58;;;;;;;8.83;3.27;;;;;;;10.51;100.00;101558.84;5029790;28;20033;-81
2022/10/08 04:01:25;;;;;;;9.57;3.30;;;;;;;10.49;100.00;101560.91;5013141;28;20047;-82
2022/10/08 04:03:50;;;;;;;9.53;3.30;;;;;;;10.48;100.00;101565.47;5029873;28;20053;-82
2022/10/08 04:06:16;;;;;;;7.93;3.30;;;;;;;10.41;100.00;101565.41;5030433;28;20120;-82
2022/10/08 04:08:41;;;;;;;12.93;4.10;;;;;;;10.39;100.00;101563.91;5030569;28;20512;-82
2022/10/08 04:11:09;;;;;;;9.07;3.80;;;;;;;10.37;100.00;101566.00;5030395;28;20036;-82
2022/10/08 04:13:35;;;;;;;11.37;3.90;;;;;;;10.34;100.00;101558.25;5030379;28;20531;-81
2022/10/08 04:16:06;;;;;;;9.13;4.20;;;;;;;10.35;100.00;101570.75;5029716;28;20335;-82
2022/10/08 04:18:31;;;;;;;9.33;4.20;;;;;;;10.31;100.00;101576.53;5029392;28;20385;-83
2022/10/08 04:20:58;;;;;;;11.07;4.27;;;;;;;10.33;100.00;101580.94;5030851;28;20048;-82
2022/10/08 04:23:23;;;;;;;12.10;4.50;;;;;;;10.28;100.00;101571.50;5030212;28;20225;-82
2022/10/08 04:25:50;;;;;;;11.90;5.10;;;;;;;10.28;100.00;101585.06;5028289;28;20387;-82
2022/10/08 04:28:15;;;;;;;10.67;4.77;;;;;;;10.31;100.00;101579.25;5030353;28;20052;-83
2022/10/08 04:30:41;;;;;;;10.37;4.77;;;;;;;10.37;100.00;101582.25;5029873;28;20144;-83
2022/10/08 04:33:06;;;;;;;12.73;6.37;;;;;;;10.38;100.00;101582.06;5030107;28;20068;-83
2022/10/08 04:35:36;;;;;;;14.10;6.87;;;;;;;10.36;100.00;101586.81;5004594;28;20102;-82
2022/10/08 04:38:01;;;;;;;14.87;7.43;;;;;;;10.38;100.00;101589.34;5029589;28;20060;-82
2022/10/08 04:40:26;;;;;;;15.60;9.00;;;;;;;10.41;100.00;101588.97;5029181;28;20038;-82
2022/10/08 04:42:52;;;;;;;20.13;11.63;;;;;;;10.34;100.00;101572.59;5029521;28;20270;-82
2022/10/08 04:45:17;;;;;;;21.73;14.77;;;;;;;10.45;100.00;101584.84;5029676;28;20068;-83
2022/10/08 04:47:43;;;;;;;24.00;16.37;;;;;;;10.43;100.00;101584.19;5030248;28;20132;-84
2022/10/08 04:50:08;;;;;;;27.37;19.20;;;;;;;10.46;100.00;101583.81;5029949;28;20443;-84
2022/10/08 04:52:33;;;;;;;27.20;19.40;;;;;;;10.57;100.00;101599.53;5011018;28;20040;-83
2022/10/08 04:54:59;;;;;;;31.17;21.13;;;;;;;10.56;100.00;101592.44;5028782;28;20129;-83
2022/10/08 04:57:24;;;;;;;32.60;22.63;;;;;;;10.60;100.00;101610.00;5030736;28;20066;-82
2022/10/08 04:59:49;;;;;;;33.13;24.30;;;;;;;10.66;100.00;101623.81;5029771;28;20041;-82
2022/10/08 05:02:15;;;;;;;30.87;23.07;;;;;;;10.68;100.00;101611.75;5029703;28;20029;-83
2022/10/08 05:04:40;;;;;;;32.60;24.93;;;;;;;10.66;100.00;101611.09;5029900;28;20044;-83
2022/10/08 05:07:05;;;;;;;33.60;25.60;;;;;;;10.71;100.00;101621.38;5029993;28;20045;-83
2022/10/08 05:09:31;;;;;;;34.17;26.73;;;;;;;10.70;100.00;101616.97;5028943;28;20045;-84
2022/10/08 05:11:56;;;;;;;36.70;27.50;;;;;;;10.69;100.00;101624.28;5029914;28;20051;-83
2022/10/08 05:14:21;;;;;;;38.03;27.83;;;;;;;10.67;100.00;101620.06;4977672;28;20157;-84
2022/10/08 05:16:47;;;;;;;35.80;27.47;;;;;;;10.68;100.00;101625.28;5030306;28;20065;-84
2022/10/08 05:19:12;;;;;;;37.03;27.17;;;;;;;10.73;100.00;101630.13;5029616;28;20408;-83
2022/10/08 05:21:38;;;;;;;44.10;29.83;;;;;;;10.71;100.00;101622.19;5030266;28;20059;-83
2022/10/08 05:24:06;;;;;;;38.33;28.30;;;;;;;10.72;100.00;101639.31;5028305;28;20041;-84
2022/10/08 05:26:38;;;;;;;41.17;30.33;;;;;;;10.71;100.00;101637.63;5029831;28;20033;-83
2022/10/08 05:29:04;;;;;;;43.50;31.27;;;;;;;10.72;100.00;101640.13;5028637;28;20041;-82
2022/10/08 05:31:30;;;;;;;40.40;31.03;;;;;;;10.72;100.00;101642.84;5029543;28;20036;-83
2022/10/08 05:33:56;;;;;;;40.07;30.67;;;;;;;10.73;100.00;101640.97;4993507;28;20033;-83
2022/10/08 05:36:27;;;;;;;45.70;33.30;;;;;;;10.72;100.00;101644.72;5029235;28;20103;-83
2022/10/08 05:38:55;;;;;;;47.30;34.07;;;;;;;10.70;100.00;101647.59;5029037;28;20032;-83
2022/10/08 05:41:23;;;;;;;46.77;34.87;;;;;;;10.69;100.00;101643.25;5005412;28;20047;-83
2022/10/08 05:43:50;;;;;;;46.97;35.50;;;;;;;10.71;100.00;101653.88;5027749;28;20178;-83
2022/10/08 05:46:16;;;;;;;47.83;35.37;;;;;;;10.69;100.00;101659.50;5028567;28;20055;-83
2022/10/08 05:48:42;;;;;;;52.20;36.97;;;;;;;10.71;100.00;101662.03;5029540;28;20041;-82
2022/10/08 05:51:13;;;;;;;51.47;37.07;;;;;;;10.73;100.00;101668.06;5028338;28;20048;-82
2022/10/08 05:53:40;;;;;;;48.13;37.53;;;;;;;10.69;100.00;101664.06;5029163;28;20377;-82
2022/10/08 05:56:09;;;;;;;50.70;38.17;;;;;;;10.71;100.00;101676.41;5029104;28;20029;-83
2022/10/08 05:58:36;;;;;;;53.33;38.47;;;;;;;10.69;100.00;101680.34;5029297;28;20602;-83
2022/10/08 06:01:04;;;;;;;50.57;38.50;;;;;;;10.61;100.00;101673.19;5026812;28;20072;-83
2022/10/08 06:03:30;;;;;;;49.90;37.87;;;;;;;10.67;100.00;101679.69;5029390;28;20033;-82
2022/10/08 06:06:02;;;;;;;56.07;39.63;;;;;;;10.69;100.00;101689.31;5028772;28;20051;-83
2022/10/08 06:08:27;;;;;;;52.97;38.93;;;;;;;10.65;100.00;101688.03;5032689;28;20036;-82
2022/10/08 06:10:55;;;;;;;54.17;40.33;;;;;;;10.67;100.00;101695.97;5033501;28;20049;-86
2022/10/08 06:13:21;;;;;;;55.37;39.73;;;;;;;10.58;100.00;101687.94;5032534;28;20041;-86
2022/10/08 06:15:57;;;;;;;57.10;40.73;;;;;;;10.61;100.00;101692.97;5032255;28;20477;-86
2022/10/08 06:18:24;;;;;;;55.93;40.93;;;;;;;10.69;100.00;101707.44;5032909;28;20040;-82
2022/10/08 06:20:49;;;;;;;55.23;41.33;;;;;;;10.66;100.00;101705.13;5032048;28;20155;-82
2022/10/08 06:23:14;;;;;;;52.23;40.53;;;;;;;10.68;100.00;101708.50;5032409;28;20059;-82
2022/10/08 06:25:40;;;;;;;55.30;40.63;;;;;;;10.60;100.00;101707.56;5030353;28;20043;-82
2022/10/08 06:28:05;;;;;;;56.40;40.50;;;;;;;10.63;100.00;101718.03;5032275;28;20087;-82
2022/10/08 06:30:30;;;;;;;57.00;40.87;;;;;;;10.64;100.00;101729.69;5007225;28;20615;-83
2022/10/08 06:32:56;;;;;;;52.80;39.97;;;;;;;10.66;100.00;101727.63;5032529;28;20156;-83
2022/10/08 06:35:21;;;;;;;53.10;40.10;;;;;;;10.63;100.00;101728.00;5031607;28;21465;-83
2022/10/08 06:37:47;;;;;;;50.30;38.87;;;;;;;10.70;100.00;101737.06;5032750;28;20772;-82
2022/10/08 06:40:13;;;;;;;53.03;39.30;;;;;;;10.70;100.00;101742.47;5031563;28;20754;-82
2022/10/08 06:42:38;;;;;;;53.90;39.83;;;;;;;10.69;100.00;101742.66;5007079;28;20094;-82
2022/10/08 06:45:04;;;;;;;55.17;39.10;;;;;;;10.67;100.00;101747.47;5031378;28;20059;-83
2022/10/08 06:47:29;;;;;;;55.13;38.77;;;;;;;10.75;100.00;101750.06;5032214;28;20044;-84
2022/10/08 06:49:55;;;;;;;53.47;39.43;;;;;;;10.79;100.00;101754.06;5031244;28;20603;-82
2022/10/08 06:52:20;;;;;;;52.20;38.77;;;;;;;10.77;100.00;101748.84;5032669;28;20098;-82
2022/10/08 06:54:45;;;;;;;49.90;37.03;;;;;;;10.84;100.00;101764.31;5031837;28;20040;-82
2022/10/08 06:57:11;;;;;;;49.50;36.20;;;;;;;10.84;100.00;101762.47;5031877;28;20036;-83
2022/10/08 06:59:36;;;;;;;50.60;37.30;;;;;;;10.91;100.00;101782.34;5032235;28;20044;-83
2022/10/08 07:02:01;;;;;;;48.60;35.50;;;;;;;10.96;100.00;101782.63;5031669;28;20123;-83
2022/10/08 07:04:27;;;;;;;48.80;35.00;;;;;;;11.02;100.00;101777.47;5031849;28;20132;-83
2022/10/08 07:06:52;;;;;;;47.87;32.97;;;;;;;11.13;100.00;101788.63;5031622;28;20699;-83
2022/10/08 07:09:17;;;;;;;40.60;31.83;;;;;;;11.20;100.00;101796.84;5031491;28;20034;-84
2022/10/08 07:11:43;;;;;;;37.53;28.83;;;;;;;11.26;100.00;101798.81;5031064;28;20052;-83
2022/10/08 07:14:08;;;;;;;36.60;28.63;;;;;;;11.25;100.00;101813.38;5031926;28;20037;-82
2022/10/08 07:16:34;;;;;;;37.43;27.50;;;;;;;11.20;100.00;101804.97;5031406;28;20053;-83
2022/10/08 07:18:59;;;;;;;34.07;25.47;;;;;;;11.31;100.00;101814.50;5029282;28;20037;-83
2022/10/08 07:21:26;;;;;;;34.70;25.10;;;;;;;11.40;100.00;101812.50;5031764;28;20048;-83
2022/10/08 07:23:51;;;;;;;33.97;24.07;;;;;;;11.52;100.00;101821.81;5023328;28;20087;-82
2022/10/08 07:26:25;;;;;;;33.33;23.83;;;;;;;11.61;100.00;101823.34;5013392;28;20495;-83
2022/10/08 07:28:54;;;;;;;29.35;20.80;;;;;;;11.73;100.00;101817.41;5031616;28;20037;-87
2022/10/08 07:31:22;;;;;;;25.67;17.47;;;;;;;11.80;100.00;101834.56;5031414;28;20033;-87
2022/10/08 07:33:48;;;;;;;26.20;17.43;;;;;;;11.90;100.00;101837.81;5031485;28;20037;-84
2022/10/08 07:36:16;;;;;;;25.43;16.63;;;;;;;12.04;100.00;101837.94;5031165;28;20439;-84
2022/10/08 07:38:41;;;;;;;23.10;14.67;;;;;;;12.27;100.00;101835.81;5031305;28;20067;-84
2022/10/08 07:41:08;;;;;;;23.50;14.47;;;;;;;12.37;100.00;101842.75;5030721;28;20116;-86
2022/10/08 07:43:34;;;;;;;21.37;13.10;;;;;;;12.45;100.00;101838.00;5031793;28;20063;-84
2022/10/08 07:46:00;;;;;;;19.63;11.93;;;;;;;12.67;100.00;101851.50;5028474;28;20036;-83
2022/10/08 07:48:30;;;;;;;21.63;11.97;;;;;;;12.80;100.00;101840.69;5030657;28;20469;-84
2022/10/08 07:50:55;;;;;;;17.20;9.80;;;;;;;13.02;98.60;101846.03;5030564;28;20457;-84
2022/10/08 07:53:20;;;;;;;19.10;9.30;;;;;;;13.21;97.64;101857.19;5031153;28;20037;-84
2022/10/08 07:55:46;;;;;;;20.60;9.07;;;;;;;13.30;95.26;101858.66;5030350;28;20044;-84
2022/10/08 07:58:12;;;;;;;16.83;8.93;;;;;;;13.37;95.16;101843.22;5029692;28;20495;-85
2022/10/08 08:00:39;;;;;;;17.43;7.50;;;;;;;13.51;92.23;101855.81;5028581;28;20033;-84
2022/10/08 08:03:04;;;;;;;13.83;6.40;;;;;;;13.77;89.65;101865.06;5030617;28;20493;-84
2022/10/08 08:05:34;;;;;;;15.33;7.20;;;;;;;13.87;90.79;101867.41;5030125;28;20146;-85
2022/10/08 08:07:59;;;;;;;14.33;6.60;;;;;;;13.98;89.09;101874.94;5030214;28;20037;-85
2022/10/08 08:10:24;;;;;;;15.23;5.60;;;;;;;14.09;86.88;101880.78;5030313;28;20914;-85
2022/10/08 08:12:50;;;;;;;15.03;5.90;;;;;;;14.35;87.08;101891.69;5021022;28;20475;-86
2022/10/08 08:15:15;;;;;;;11.63;5.20;;;;;;;14.47;84.52;101880.97;5029841;28;20039;-84
2022/10/08 08:17:40;;;;;;;11.23;4.87;;;;;;;14.61;84.93;101889.13;5021885;28;20043;-84
2022/10/08 08:20:07;;;;;;;10.43;4.40;;;;;;;14.62;83.79;101878.00;5030344;28;20608;-84
2022/10/08 08:22:33;;;;;;;11.10;4.60;;;;;;;14.87;81.99;101890.16;5029334;28;20084;-84
2022/10/08 08:24:58;;;;;;;13.17;4.40;;;;;;;15.10;81.28;101895.09;5029312;28;20124;-84
2022/10/08 08:27:23;;;;;;;9.57;4.00;;;;;;;15.21;80.35;101890.84;5029974;28;20037;-86
2022/10/08 08:29:49;;;;;;;9.37;3.43;;;;;;;15.24;78.51;101907.59;5029953;28;20024;-84
2022/10/08 08:32:14;;;;;;;9.37;3.20;;;;;;;15.39;78.99;101914.69;5029106;28;20045;-85
2022/10/08 08:34:40;;;;;;;13.77;3.80;;;;;;;15.59;77.63;101909.13;5030259;28;20039;-85
2022/10/08 08:37:05;;;;;;;7.90;2.50;;;;;;;15.63;75.01;101922.13;5029375;28;20385;-84
2022/10/08 08:39:31;;;;;;;9.07;2.97;;;;;;;15.45;75.44;101930.19;5030347;28;20120;-85
2022/10/08 08:42:19;;;;;;;10.37;2.90;;;;;;;15.62;77.18;101925.91;5029828;28;20128;-84
2022/10/08 08:45:14;;;;;;;8.63;2.30;;;;;;;15.74;76.02;101931.50;5029333;28;20033;-84
2022/10/08 08:47:44;;;;;;;7.38;2.05;;;;;;;15.53;72.49;101943.63;5029907;28;20025;-85
2022/10/08 08:50:12;;;;;;;5.33;1.80;;;;;;;15.43;70.98;101933.16;5028165;28;20060;-84
2022/10/08 08:52:40;;;;;;;5.43;1.80;;;;;;;15.31;71.54;101945.81;5029505;28;20095;-85
2022/10/08 08:55:42;;;;;;;9.27;2.03;;;;;;;15.54;74.46;101939.81;5030173;28;20368;-85
2022/10/08 08:58:33;;;;;;;7.67;2.00;;;;;;;15.41;72.08;101954.38;5026043;28;20068;-85
2022/10/08 09:01:03;;;;;;;8.63;1.80;;;;;;;15.33;71.05;101951.91;5029266;28;20036;-84
2022/10/08 09:03:33;;;;;;;8.67;1.80;;;;;;;15.39;70.28;101953.75;5028233;28;20087;-84
2022/10/08 09:06:04;;;;;;;9.73;1.80;;;;;;;15.52;73.54;101947.41;5029121;28;20044;-86
2022/10/08 09:08:35;;;;;;;8.63;1.97;;;;;;;15.67;69.01;101952.56;5012305;28;20044;-84
2022/10/08 09:11:03;;;;;;;8.70;1.70;;;;;;;15.48;67.80;101952.44;5029800;28;20041;-84
2022/10/08 09:13:42;;;;;;;11.17;2.20;;;;;;;15.63;69.91;101948.59;5028411;28;20025;-85
2022/10/08 09:16:15;;;;;;;6.93;1.63;;;;;;;15.48;70.35;101957.91;5020686;28;20079;-84
2022/10/08 09:18:46;;;;;;;7.07;1.80;;;;;;;15.67;70.72;101958.03;5030649;28;20040;-84
2022/10/08 09:21:12;;;;;;;6.53;1.60;;;;;;;15.70;68.05;101961.16;5028852;28;20488;-86
2022/10/08 09:23:37;;;;;;;6.77;1.67;;;;;;;15.65;65.61;101980.13;5029911;28;20060;-85
2022/10/08 09:26:14;;;;;;;7.77;1.77;;;;;;;15.39;69.30;101978.31;5028939;28;20037;-85
2022/10/08 09:28:46;;;;;;;8.30;1.73;;;;;;;15.16;66.61;101967.91;5029797;28;20037;-85
2022/10/08 09:31:40;;;;;;;7.40;1.73;;;;;;;15.05;67.46;101979.50;5020950;28;20025;-84
2022/10/08 09:34:14;;;;;;;7.37;1.63;;;;;;;14.91;68.86;101982.25;5030323;28;20049;-85
2022/10/08 09:36:47;;;;;;;11.77;2.20;;;;;;;14.88;69.51;101990.88;5029716;28;20045;-84
2022/10/08 09:39:17;;;;;;;7.53;1.83;;;;;;;14.73;68.41;101992.97;5029749;28;20070;-86
2022/10/08 09:41:44;;;;;;;6.57;1.70;;;;;;;14.72;69.81;101988.59;5029493;28;21028;-84
2022/10/08 09:44:16;;;;;;;8.07;1.57;;;;;;;14.87;70.26;101996.56;5033438;28;20120;-85
2022/10/08 09:46:42;;;;;;;6.90;1.67;;;;;;;14.87;69.96;101999.28;5033646;28;20030;-85
2022/10/08 09:49:23;;;;;;;10.60;1.83;;;;;;;14.81;70.40;102007.25;5008034;28;20046;-85
2022/10/08 09:51:49;;;;;;;6.67;1.60;;;;;;;14.59;69.37;102014.81;5033488;28;20029;-84
2022/10/08 09:54:22;;;;;;;7.77;1.67;;;;;;;14.41;69.94;102017.31;5033990;28;20449;-86
2022/10/08 09:56:54;;;;;;;5.87;1.60;;;;;;;14.23;70.90;102010.56;5033284;28;20032;-84
2022/10/08 09:59:23;;;;;;;5.87;1.60;;;;;;;14.24;71.57;102025.88;5033152;28;20037;-85
2022/10/08 10:01:48;;;;;;;5.50;1.40;;;;;;;14.46;71.37;102014.81;5033169;28;20036;-85
2022/10/08 10:04:39;;;;;;;11.10;1.80;;;;;;;14.62;68.69;102008.91;5033135;28;20443;-85
2022/10/08 10:07:05;;;;;;;8.67;1.53;;;;;;;14.82;65.50;102019.00;5032542;28;20468;-85
2022/10/08 10:09:33;;;;;;;10.00;1.70;;;;;;;15.02;68.05;102027.16;5033359;28;20124;-86
2022/10/08 10:12:08;;;;;;;8.03;1.47;;;;;;;15.31;63.14;102031.31;5032493;28;20127;-85
2022/10/08 10:14:50;;;;;;;3.87;1.40;;;;;;;15.45;64.21;102018.44;5032801;28;20040;-86
2022/10/08 10:17:49;;;;;;;5.97;1.50;;;;;;;15.65;64.05;102033.91;5032098;28;20055;-86
2022/10/08 10:20:26;;;;;;;5.97;1.47;;;;;;;15.72;62.94;102034.72;5030098;28;20052;-85
2022/10/08 10:23:24;;;;;;;6.10;1.57;;;;;;;15.60;62.77;102020.03;5032168;28;20128;-86
2022/10/08 10:26:03;;;;;;;5.93;1.30;;;;;;;15.81;59.93;102035.34;5012744;28;20055;-86
2022/10/08 10:28:52;;;;;;;6.93;1.47;;;;;;;15.78;60.17;102038.47;5033028;28;20041;-85
2022/10/08 10:31:37;;;;;;;4.80;1.37;;;;;;;15.13;59.24;102039.31;5032852;28;20539;-85
2022/10/08 10:34:11;;;;;;;;;;;;;;;15.41;59.12;102040.91;5033163;28;20045;-84
2022/10/08 10:36:48;;;;;;;4.97;1.10;;;;;;;15.13;59.90;102051.06;5032946;28;19974;-86
2022/10/08 10:39:16;;;;;;;7.53;1.40;;;;;;;15.45;63.53;102048.47;5032561;28;20025;-86
2022/10/08 10:41:47;;;;;;;5.00;1.20;;;;;;;15.47;57.42;102045.53;5032353;28;20033;-86
2022/10/08 10:44:17;;;;;;;4.83;1.43;;;;;;;15.64;58.20;102027.59;5032498;28;20036;-86
2022/10/08 10:46:50;;;;;;;7.70;1.57;;;;;;;16.00;60.75;102045.31;5032773;28;20497;-85
2022/10/08 10:49:42;;;;;;;6.47;1.45;;;;;;;16.23;57.50;102046.66;5023788;28;20032;-86
2022/10/08 10:52:35;;;;;;;6.37;1.63;;;;;;;16.07;59.47;102049.91;5028385;28;20041;-87
2022/10/08 10:55:19;;;;;;;7.22;1.45;;;;;;;16.27;59.48;102053.38;5031234;28;20043;-86
2022/10/08 10:58:34;;;;;;;7.95;1.63;;;;;;;16.50;58.70;102054.69;5032245;28;20686;-86
2022/10/08 11:01:21;;;;;;;5.40;1.10;;;;;;;16.50;56.13;102057.44;5013613;28;20094;-87
2022/10/08 11:03:50;;;;;;;4.97;1.45;;;;;;;16.44;57.86;102050.09;5031852;28;20041;-86
2022/10/08 11:06:42;;;;;;;5.25;1.63;;;;;;;16.46;56.87;102059.75;5032499;28;20258;-87
2022/10/08 11:09:14;;;;;;;5.57;1.35;;;;;;;16.49;56.45;102069.41;5031492;28;20129;-86
2022/10/08 11:11:45;;;;;;;5.57;1.65;;;;;;;16.22;55.86;102052.34;5031765;28;20354;-86
2022/10/08 11:14:53;;;;;;;6.88;1.77;;;;;;;16.43;56.45;102057.47;5007333;28;20129;-86
2022/10/08 11:17:18;;;;;;;6.22;1.40;;;;;;;16.11;53.23;102056.63;5007214;28;20577;-86
2022/10/08 11:19:50;;;;;;;6.40;1.70;;;;;;;16.14;56.36;102047.97;5031663;28;20037;-85
2022/10/08 11:22:37;;;;;;;6.43;1.20;;;;;;;16.16;56.22;102056.81;5031280;28;20170;-87
2022/10/08 11:25:18;;;;;;;4.73;1.23;;;;;;;16.21;56.24;102059.72;5031665;28;20534;-85
2022/10/08 11:28:19;;;;;;;5.47;1.40;;;;;;;16.09;56.73;102051.38;5031392;28;20032;-86
2022/10/08 11:31:07;;;;;;;6.43;1.40;;;;;;;15.77;56.77;102051.28;4960494;28;20052;-85
2022/10/08 11:33:33;;;;;;;7.03;1.40;;;;;;;15.85;56.49;102059.28;5031528;28;20043;-84